createdAt,value
2017-06-08T07:04:05.075Z,1018.178
2017-06-08T07:14:21.236Z,1018.056
2017-06-08T07:21:36.737Z,1018.082
2017-06-08T07:33:41.043Z,1018.033
2017-06-08T07:38:28.580Z,1018.037
2017-06-08T07:41:13.729Z,1018.001
2017-06-08T07:44:53.687Z,1018.010
2017-06-08T07:47:40.453Z,1018.012
2017-06-08T07:53:37.295Z,1018.025
2017-06-08T07:56:32.485Z,1018.055
2017-06-08T08:00:01.667Z,1018.052
2017-06-08T08:03:11.683Z,1018.013
2017-06-08T08:06:00.010Z,1017.959
2017-06-08T08:08:55.126Z,1017.944
2017-06-08T08:17:40.106Z,1018.042
2017-06-08T08:20:35.222Z,1018.004
2017-06-08T08:23:30.266Z,1018.040
2017-06-08T08:26:25.070Z,1018.067
2017-06-08T08:29:20.250Z,1018.116
2017-06-08T08:32:15.462Z,1018.146
2017-06-08T08:35:09.966Z,1018.255
2017-06-08T08:38:04.545Z,1018.294
2017-06-08T08:40:59.013Z,1018.265
2017-06-08T08:43:53.916Z,1018.298
2017-06-08T08:46:49.139Z,1018.310
2017-06-08T08:49:44.427Z,1018.253
2017-06-08T08:52:39.001Z,1018.291
2017-06-08T09:01:22.471Z,1018.187
2017-06-08T09:04:17.876Z,1018.200
2017-06-08T09:10:07.662Z,1018.244
2017-06-08T09:13:02.295Z,1018.225
2017-06-08T09:15:58.117Z,1018.214
2017-06-08T09:18:53.941Z,1018.210
2017-06-08T09:24:45.536Z,1018.119
2017-06-08T09:27:41.393Z,1018.159
2017-06-08T09:30:37.178Z,1018.131
2017-06-08T09:33:32.940Z,1018.165
2017-06-08T09:36:28.643Z,1018.319
2017-06-08T09:39:24.169Z,1018.255
2017-06-08T09:42:19.706Z,1018.279
2017-06-08T09:48:10.266Z,1018.368
2017-06-08T09:51:05.502Z,1018.376
2017-06-08T09:53:59.898Z,1018.312
2017-06-08T09:56:54.927Z,1018.437
2017-06-08T09:59:49.446Z,1018.497
2017-06-08T10:02:43.966Z,1018.483
2017-06-08T10:05:38.301Z,1018.481
2017-06-08T10:08:32.614Z,1018.451
2017-06-08T10:11:26.917Z,1018.516
2017-06-08T10:14:21.893Z,1018.509
2017-06-08T10:20:10.392Z,1018.502
2017-06-08T10:23:15.426Z,1018.548
2017-06-08T10:26:03.990Z,1018.532
2017-06-08T10:28:58.270Z,1018.597
2017-06-08T10:31:53.001Z,1018.590
2017-06-08T10:34:48.138Z,1018.598
2017-06-08T10:37:43.389Z,1018.623
2017-06-08T10:40:38.562Z,1018.690
2017-06-08T10:43:33.809Z,1018.745
2017-06-08T10:46:29.122Z,1018.777
2017-06-08T10:49:24.400Z,1018.725
2017-06-08T10:52:19.702Z,1018.749
2017-06-08T10:55:15.079Z,1018.770
2017-06-08T10:58:10.379Z,1018.821
2017-06-08T11:01:05.711Z,1018.817
2017-06-08T11:04:00.878Z,1018.951
2017-06-08T11:06:56.069Z,1018.963
2017-06-08T11:09:51.072Z,1018.950
2017-06-08T11:15:40.862Z,1018.931
2017-06-08T11:18:35.736Z,1018.954
2017-06-08T11:21:30.698Z,1019.015
2017-06-08T11:24:25.495Z,1018.984
2017-06-08T11:27:20.407Z,1018.952
2017-06-08T11:30:15.288Z,1018.950
2017-06-08T11:33:10.252Z,1018.922
2017-06-08T11:40:42.120Z,1018.868
2017-06-08T11:43:27.115Z,1018.839
2017-06-08T11:47:06.962Z,1018.808
2017-06-08T11:49:53.147Z,1018.831
2017-06-08T11:52:47.660Z,1018.775
2017-06-08T11:55:42.602Z,1018.783
2017-06-08T11:59:23.012Z,1018.832
2017-06-08T12:02:09.430Z,1018.781
2017-06-08T12:05:04.441Z,1018.731
2017-06-08T12:07:59.702Z,1018.688
2017-06-08T12:10:54.793Z,1018.675
2017-06-08T12:13:49.705Z,1018.741
2017-06-08T12:16:44.437Z,1018.677
2017-06-08T12:20:23.684Z,1018.657
2017-06-08T12:23:08.906Z,1018.682
2017-06-08T12:26:48.460Z,1018.709
2017-06-08T12:29:56.172Z,1018.650
2017-06-08T12:38:32.656Z,1018.664
2017-06-08T12:41:50.828Z,1018.724
2017-06-08T12:47:15.859Z,1018.677
2017-06-08T12:50:00.533Z,1018.676
2017-06-08T13:23:14.387Z,1018.394
2017-06-08T13:28:13.780Z,1018.354
2017-06-08T13:30:58.159Z,1018.319
2017-06-08T13:33:52.506Z,1018.324
2017-06-08T13:36:47.141Z,1018.296
2017-06-08T13:42:36.659Z,1018.365
2017-06-08T13:45:31.167Z,1018.318
2017-06-08T13:48:25.759Z,1018.357
2017-06-08T13:51:31.776Z,1018.345
2017-06-08T13:54:43.542Z,1018.331
2017-06-08T13:57:30.654Z,1018.327
2017-06-08T14:00:36.531Z,1018.224
2017-06-08T14:03:26.466Z,1018.204
2017-06-08T14:06:31.683Z,1018.157
2017-06-08T14:09:32.593Z,1018.153
2017-06-08T14:12:22.351Z,1018.088
2017-06-08T14:15:16.992Z,1018.062
2017-06-08T14:19:19.524Z,1018.005
2017-06-08T14:22:15.931Z,1017.918
2017-06-08T14:25:05.438Z,1017.898
2017-06-08T14:27:59.968Z,1017.813
2017-06-08T14:30:54.692Z,1017.831
2017-06-08T14:37:24.194Z,1017.754
2017-06-08T14:40:53.226Z,1017.709
2017-06-08T14:43:38.824Z,1017.698
2017-06-08T14:48:37.394Z,1017.679
2017-06-08T14:52:28.839Z,1017.622
2017-06-08T14:55:12.813Z,1017.599
2017-06-08T14:58:17.761Z,1017.602
2017-06-08T15:04:58.424Z,1017.578
2017-06-08T15:07:52.153Z,1017.519
2017-06-08T15:10:46.207Z,1017.518
2017-06-08T15:21:12.303Z,1017.360
2017-06-08T15:28:25.605Z,1017.214
2017-06-08T15:32:28.317Z,1017.197
2017-06-08T15:35:12.488Z,1017.193
2017-06-08T15:38:05.558Z,1017.218
2017-06-08T15:40:59.321Z,1017.272
2017-06-08T15:44:15.947Z,1017.298
2017-06-08T15:48:21.717Z,1017.274
2017-06-08T15:52:47.144Z,1017.225
2017-06-08T15:55:30.358Z,1017.223
2017-06-08T15:58:23.833Z,1017.216
2017-06-08T16:01:17.601Z,1017.189
2017-06-08T16:06:04.563Z,1017.192
2017-06-08T16:08:47.682Z,1017.122
2017-06-08T16:15:42.772Z,1017.047
2017-06-08T16:18:26.727Z,1016.962
2017-06-08T16:21:43.018Z,1016.950
2017-06-08T16:27:52.343Z,1016.909
2017-06-08T16:30:39.402Z,1016.909
2017-06-08T16:33:32.930Z,1016.940
2017-06-08T16:36:26.924Z,1016.901
2017-06-08T16:39:20.982Z,1016.951
2017-06-08T16:42:14.919Z,1016.928
2017-06-08T16:45:09.052Z,1016.918
2017-06-08T16:48:03.887Z,1016.936
2017-06-08T16:50:58.800Z,1016.899
2017-06-08T16:53:53.268Z,1016.888
2017-06-08T16:57:32.913Z,1016.889
2017-06-08T17:00:18.389Z,1016.905
2017-06-08T17:03:12.589Z,1016.850
2017-06-08T17:06:06.931Z,1016.849
2017-06-08T17:11:05.881Z,1016.891
2017-06-08T17:13:49.973Z,1016.865
2017-06-08T17:16:43.894Z,1016.885
2017-06-08T17:19:38.133Z,1016.866
2017-06-08T17:26:07.054Z,1016.799
2017-06-08T17:32:51.661Z,1016.801
2017-06-08T17:36:33.413Z,1016.789
2017-06-08T17:39:18.884Z,1016.782
2017-06-08T17:45:25.165Z,1016.758
2017-06-08T17:53:01.775Z,1016.686
2017-06-08T18:04:01.632Z,1016.673
2017-06-08T18:06:56.317Z,1016.695
2017-06-08T18:13:30.506Z,1016.691
2017-06-08T18:17:54.490Z,1016.700
2017-06-08T18:28:24.935Z,1016.654
2017-06-08T18:31:51.885Z,1016.608
2017-06-08T18:35:44.943Z,1016.597
2017-06-08T18:55:14.094Z,1016.493
2017-06-08T18:59:38.906Z,1016.499
2017-06-08T19:02:22.866Z,1016.487
2017-06-08T19:10:27.561Z,1016.513
2017-06-08T19:13:21.491Z,1016.537
2017-06-08T19:16:15.954Z,1016.562
2017-06-08T19:19:10.781Z,1016.666
2017-06-08T19:22:39.685Z,1016.756
2017-06-08T19:25:26.721Z,1016.751
2017-06-08T19:28:21.604Z,1016.689
2017-06-08T19:31:16.633Z,1016.618
2017-06-08T19:39:16.882Z,1016.615
2017-06-08T19:42:00.849Z,1016.618
2017-06-08T19:44:55.053Z,1016.622
2017-06-08T19:47:49.693Z,1016.634
2017-06-08T19:52:26.315Z,1016.648
2017-06-08T19:58:57.000Z,1016.568
2017-06-08T20:01:41.028Z,1016.563
2017-06-08T20:04:35.114Z,1016.557
2017-06-08T20:07:29.726Z,1016.575
2017-06-08T20:10:35.851Z,1016.541
2017-06-08T20:19:38.744Z,1016.504
2017-06-08T20:23:30.437Z,1016.528
2017-06-08T20:32:39.466Z,1016.548
2017-06-08T20:35:23.206Z,1016.555
2017-06-08T20:50:21.014Z,1016.628
2017-06-08T21:02:28.993Z,1016.661
2017-06-08T21:07:05.745Z,1016.620
2017-06-08T21:19:37.742Z,1016.628
2017-06-08T21:22:21.341Z,1016.648
2017-06-08T21:25:15.323Z,1016.714
